createdAt,value
2023-04-10T00:00:36.304Z,100.00
2023-04-10T00:01:41.982Z,100.00
2023-04-10T00:02:50.309Z,100.00
2023-04-10T00:03:54.665Z,100.00
2023-04-10T00:05:01.732Z,100.00
2023-04-10T00:06:08.102Z,100.00
2023-04-10T00:07:17.569Z,100.00
2023-04-10T00:08:25.087Z,100.00
2023-04-10T00:09:32.406Z,100.00
2023-04-10T00:10:36.863Z,100.00
2023-04-10T00:11:43.287Z,100.00
2023-04-10T00:12:47.322Z,100.00
2023-04-10T00:13:56.266Z,100.00
2023-04-10T00:14:59.867Z,100.00
2023-04-10T00:16:16.577Z,100.00
2023-04-10T00:17:20.178Z,100.00
2023-04-10T00:18:32.050Z,100.00
2023-04-10T00:19:35.552Z,100.00
2023-04-10T00:20:44.925Z,100.00
2023-04-10T00:21:51.718Z,100.00
2023-04-10T00:23:06.815Z,100.00
2023-04-10T00:24:16.491Z,100.00
2023-04-10T00:25:23.743Z,100.00
2023-04-10T00:26:32.332Z,100.00
2023-04-10T00:27:44.827Z,100.00
2023-04-10T00:28:48.391Z,100.00
2023-04-10T00:30:03.224Z,100.00
2023-04-10T00:31:13.164Z,100.00
2023-04-10T00:32:18.530Z,100.00
2023-04-10T00:33:32.073Z,100.00
2023-04-10T00:34:38.252Z,100.00
2023-04-10T00:35:50.508Z,100.00
2023-04-10T00:36:57.670Z,100.00
2023-04-10T00:38:07.420Z,100.00
2023-04-10T00:39:13.524Z,100.00
2023-04-10T00:40:20.083Z,100.00
2023-04-10T00:41:25.798Z,100.00
2023-04-10T00:42:34.515Z,100.00
2023-04-10T00:43:37.837Z,100.00
2023-04-10T00:44:47.102Z,100.00
2023-04-10T00:45:59.229Z,100.00
2023-04-10T00:47:10.398Z,100.00
2023-04-10T00:48:14.627Z,100.00
2023-04-10T00:49:25.548Z,100.00
2023-04-10T00:50:28.780Z,100.00
2023-04-10T00:51:38.433Z,100.00
2023-04-10T00:52:41.849Z,100.00
2023-04-10T00:53:48.262Z,100.00
2023-04-10T00:54:56.176Z,100.00
2023-04-10T00:56:04.299Z,100.00
2023-04-10T00:57:14.086Z,100.00
2023-04-10T00:58:17.901Z,100.00
2023-04-10T00:59:30.139Z,100.00
2023-04-10T01:00:44.733Z,100.00
2023-04-10T01:01:59.214Z,100.00
2023-04-10T01:03:06.655Z,100.00
2023-04-10T01:04:17.578Z,100.00
2023-04-10T01:05:24.450Z,100.00
2023-04-10T01:06:44.389Z,100.00
2023-04-10T01:08:15.799Z,100.00
2023-04-10T01:09:35.972Z,100.00
2023-04-10T01:10:52.041Z,100.00
2023-04-10T01:12:05.641Z,100.00
2023-04-10T01:13:20.803Z,100.00
2023-04-10T01:14:40.681Z,100.00
2023-04-10T01:15:53.948Z,100.00
2023-04-10T01:17:13.729Z,100.00
2023-04-10T01:18:27.552Z,100.00
2023-04-10T01:19:49.667Z,100.00
2023-04-10T01:20:59.815Z,100.00
2023-04-10T01:22:05.315Z,100.00
2023-04-10T01:23:32.987Z,100.00
2023-04-10T01:25:06.317Z,100.00
2023-04-10T01:26:17.483Z,100.00
2023-04-10T01:27:42.389Z,100.00
2023-04-10T01:29:16.939Z,100.00
2023-04-10T01:30:24.245Z,100.00
2023-04-10T01:31:44.745Z,100.00
2023-04-10T01:32:51.513Z,100.00
2023-04-10T01:34:02.539Z,100.00
2023-04-10T01:35:09.334Z,100.00
2023-04-10T01:36:16.905Z,100.00
2023-04-10T01:37:26.019Z,100.00
2023-04-10T01:38:33.994Z,100.00
2023-04-10T01:39:46.105Z,100.00
2023-04-10T01:40:59.136Z,100.00
2023-04-10T01:42:07.492Z,100.00
2023-04-10T01:43:17.359Z,100.00
2023-04-10T01:44:32.984Z,100.00
2023-04-10T01:45:39.612Z,100.00
2023-04-10T01:46:55.249Z,100.00
2023-04-10T01:47:59.174Z,100.00
2023-04-10T01:49:10.788Z,100.00
2023-04-10T01:50:17.335Z,100.00
2023-04-10T01:51:27.024Z,100.00
2023-04-10T01:52:37.677Z,100.00
2023-04-10T01:53:45.151Z,100.00
2023-04-10T01:54:50.550Z,100.00
2023-04-10T01:55:58.888Z,100.00
2023-04-10T01:57:04.616Z,100.00
2023-04-10T01:58:25.894Z,100.00
2023-04-10T01:59:34.513Z,100.00
2023-04-10T02:00:43.909Z,100.00
2023-04-10T02:02:08.932Z,100.00
2023-04-10T02:03:17.835Z,100.00
2023-04-10T02:04:24.791Z,100.00
2023-04-10T02:05:37.125Z,100.00
2023-04-10T02:06:55.189Z,100.00
2023-04-10T02:08:10.659Z,100.00
2023-04-10T02:09:35.368Z,100.00
2023-04-10T02:10:57.269Z,100.00
2023-04-10T02:12:07.937Z,100.00
2023-04-10T02:13:17.133Z,100.00
2023-04-10T02:14:28.896Z,100.00
2023-04-10T02:15:38.030Z,100.00
2023-04-10T02:16:50.052Z,100.00
2023-04-10T02:17:54.971Z,100.00
2023-04-10T02:19:05.084Z,100.00
2023-04-10T02:20:10.175Z,100.00
2023-04-10T02:21:23.726Z,100.00
2023-04-10T02:22:36.881Z,100.00
2023-04-10T02:23:49.322Z,100.00
2023-04-10T02:25:03.900Z,100.00
2023-04-10T02:26:11.922Z,100.00
2023-04-10T02:27:16.677Z,100.00
2023-04-10T02:28:28.138Z,100.00
2023-04-10T02:29:32.790Z,100.00
2023-04-10T02:30:43.998Z,100.00
2023-04-10T02:31:53.582Z,100.00
2023-04-10T02:33:02.591Z,100.00
2023-04-10T02:34:08.149Z,100.00
2023-04-10T02:35:24.367Z,100.00
2023-04-10T02:36:30.972Z,100.00
2023-04-10T02:37:48.306Z,100.00
2023-04-10T02:38:54.177Z,100.00
2023-04-10T02:40:04.176Z,100.00
2023-04-10T02:41:08.501Z,100.00
2023-04-10T02:42:23.473Z,100.00
2023-04-10T02:43:26.853Z,100.00
2023-04-10T02:44:36.440Z,100.00
2023-04-10T02:45:48.056Z,100.00
2023-04-10T02:47:03.574Z,100.00
2023-04-10T02:48:07.451Z,100.00
2023-04-10T02:49:16.552Z,100.00
2023-04-10T02:50:20.197Z,100.00
2023-04-10T02:51:34.032Z,100.00
2023-04-10T02:52:41.763Z,100.00
2023-04-10T02:53:48.486Z,100.00
2023-04-10T02:54:58.660Z,100.00
2023-04-10T02:56:08.345Z,100.00
2023-04-10T02:57:12.995Z,100.00
2023-04-10T02:58:23.186Z,100.00
2023-04-10T03:03:11.336Z,100.00
2023-04-10T03:04:18.896Z,100.00
2023-04-10T03:05:29.510Z,100.00
2023-04-10T03:06:33.258Z,100.00
2023-04-10T03:07:39.988Z,100.00
2023-04-10T03:08:43.721Z,100.00
2023-04-10T03:09:51.212Z,100.00
2023-04-10T03:10:56.056Z,100.00
2023-04-10T03:12:05.362Z,100.00
2023-04-10T03:13:10.763Z,100.00
2023-04-10T03:14:23.886Z,100.00
2023-04-10T03:15:31.549Z,100.00
2023-04-10T03:16:39.353Z,100.00
2023-04-10T03:17:54.538Z,100.00
2023-04-10T03:19:04.957Z,100.00
2023-04-10T03:20:10.344Z,100.00
2023-04-10T03:21:22.901Z,100.00
2023-04-10T03:22:28.631Z,100.00
2023-04-10T03:23:38.190Z,100.00
2023-04-10T03:24:42.283Z,100.00
2023-04-10T03:25:55.429Z,100.00
2023-04-10T03:27:04.611Z,100.00
2023-04-10T03:28:10.730Z,100.00
2023-04-10T03:29:19.648Z,100.00
2023-04-10T03:30:28.596Z,100.00
2023-04-10T03:31:38.126Z,100.00
2023-04-10T03:32:55.230Z,100.00
2023-04-10T03:34:02.980Z,100.00
2023-04-10T03:35:15.210Z,100.00
2023-04-10T03:36:21.585Z,100.00
2023-04-10T03:37:28.784Z,100.00
2023-04-10T03:38:44.997Z,100.00
2023-04-10T03:39:54.063Z,100.00
2023-04-10T03:41:00.069Z,100.00
2023-04-10T03:42:04.146Z,100.00
2023-04-10T03:43:12.569Z,100.00
2023-04-10T03:45:31.849Z,100.00
2023-04-10T03:46:36.583Z,100.00
2023-04-10T03:47:44.249Z,100.00
2023-04-10T03:48:48.943Z,100.00
2023-04-10T04:12:14.824Z,100.00
2023-04-10T04:13:21.882Z,100.00
2023-04-10T04:14:30.192Z,100.00
2023-04-10T04:15:38.196Z,100.00
2023-04-10T04:16:43.522Z,100.00
2023-04-10T04:17:51.236Z,100.00
2023-04-10T04:18:55.872Z,100.00
2023-04-10T04:20:04.314Z,100.00
2023-04-10T04:21:09.442Z,100.00
2023-04-10T04:22:21.024Z,100.00
2023-04-10T04:23:28.212Z,100.00
2023-04-10T04:24:37.172Z,100.00
2023-04-10T04:25:40.981Z,100.00
2023-04-10T04:26:50.630Z,100.00
2023-04-10T04:27:57.193Z,100.00
2023-04-10T04:29:10.604Z,100.00
2023-04-10T04:30:16.419Z,100.00
2023-04-10T04:31:23.779Z,100.00
2023-04-10T04:32:29.381Z,100.00
2023-04-10T04:33:38.685Z,100.00
2023-04-10T04:34:42.914Z,100.00
2023-04-10T04:35:53.093Z,100.00
2023-04-10T04:37:00.543Z,100.00
2023-04-10T04:38:07.191Z,100.00
2023-04-10T04:39:10.980Z,100.00
2023-04-10T04:40:24.731Z,100.00
2023-04-10T04:41:31.358Z,100.00
2023-04-10T04:42:39.993Z,100.00
2023-04-10T04:43:48.594Z,100.00
2023-04-10T04:44:55.853Z,100.00
2023-04-10T04:46:00.802Z,100.00
2023-04-10T04:47:11.146Z,100.00
2023-04-10T04:48:15.904Z,100.00
2023-04-10T04:49:22.058Z,100.00
2023-04-10T04:50:25.653Z,100.00
2023-04-10T04:51:34.108Z,100.00
2023-04-10T04:52:37.996Z,100.00
2023-04-10T04:53:44.487Z,100.00
2023-04-10T04:54:48.144Z,100.00
2023-04-10T04:55:55.465Z,100.00
2023-04-10T04:56:59.447Z,100.00
2023-04-10T04:58:07.158Z,100.00
2023-04-10T04:59:14.259Z,100.00
2023-04-10T05:00:20.930Z,100.00
2023-04-10T05:01:25.421Z,100.00
2023-04-10T05:02:33.220Z,100.00
2023-04-10T05:03:37.893Z,100.00
2023-04-10T05:04:44.454Z,100.00
2023-04-10T05:05:49.017Z,100.00
2023-04-10T05:06:58.040Z,100.00
2023-04-10T05:08:01.248Z,100.00
2023-04-10T05:09:09.020Z,100.00
2023-04-10T05:10:14.313Z,100.00
2023-04-10T05:11:21.994Z,100.00
2023-04-10T05:12:26.390Z,100.00
2023-04-10T05:13:33.369Z,100.00
2023-04-10T05:14:40.049Z,100.00
2023-04-10T05:15:46.486Z,100.00
2023-04-10T05:16:50.430Z,100.00
2023-04-10T05:17:58.693Z,100.00
2023-04-10T05:19:03.154Z,100.00
2023-04-10T05:20:14.842Z,100.00
2023-04-10T05:21:19.030Z,100.00
2023-04-10T05:22:28.306Z,100.00
2023-04-10T05:23:32.094Z,100.00
2023-04-10T05:24:39.175Z,100.00
2023-04-10T05:25:43.999Z,100.00
2023-04-10T05:26:50.605Z,100.00
2023-04-10T05:27:54.814Z,100.00
2023-04-10T05:29:01.032Z,100.00
2023-04-10T05:30:09.337Z,100.00
2023-04-10T05:31:17.941Z,100.00
2023-04-10T05:32:21.981Z,100.00
2023-04-10T05:33:28.827Z,100.00
2023-04-10T05:34:32.666Z,100.00
2023-04-10T05:35:41.870Z,100.00
2023-04-10T05:36:45.553Z,100.00
2023-04-10T05:37:52.084Z,100.00
2023-04-10T05:38:56.191Z,100.00
2023-04-10T05:40:07.986Z,100.00
2023-04-10T05:41:16.035Z,100.00
2023-04-10T05:42:21.501Z,100.00
2023-04-10T05:43:31.343Z,100.00
2023-04-10T05:44:38.336Z,100.00
2023-04-10T05:45:45.416Z,100.00
2023-04-10T05:46:52.207Z,100.00
2023-04-10T05:47:58.884Z,100.00
2023-04-10T05:49:03.200Z,100.00
2023-04-10T05:50:10.652Z,100.00
2023-04-10T05:51:17.217Z,100.00
2023-04-10T05:52:23.847Z,100.00
2023-04-10T05:53:32.303Z,100.00
2023-04-10T05:54:42.107Z,100.00
2023-04-10T05:55:57.842Z,100.00
2023-04-10T05:57:02.787Z,100.00
2023-04-10T05:58:09.488Z,100.00
2023-04-10T05:59:14.061Z,100.00
2023-04-10T06:00:22.072Z,100.00
2023-04-10T06:01:31.985Z,100.00
2023-04-10T06:02:36.640Z,100.00
2023-04-10T06:03:45.712Z,100.00
2023-04-10T06:04:50.701Z,100.00
2023-04-10T06:05:57.721Z,100.00
2023-04-10T06:07:04.085Z,100.00
2023-04-10T06:08:08.167Z,100.00
2023-04-10T06:09:16.924Z,100.00
2023-04-10T06:10:21.938Z,100.00
2023-04-10T06:11:31.549Z,100.00
2023-04-10T06:12:37.913Z,100.00
2023-04-10T06:13:45.294Z,100.00
2023-04-10T06:14:50.089Z,100.00
2023-04-10T06:15:57.499Z,100.00
2023-04-10T06:17:04.005Z,100.00
2023-04-10T06:18:10.509Z,100.00
2023-04-10T06:19:15.140Z,100.00
2023-04-10T06:20:23.111Z,100.00
2023-04-10T06:21:27.736Z,100.00
2023-04-10T06:22:37.408Z,100.00
2023-04-10T06:23:41.771Z,100.00
2023-04-10T06:24:48.718Z,100.00
2023-04-10T06:25:57.647Z,100.00
2023-04-10T06:27:04.038Z,100.00
2023-04-10T06:28:08.856Z,100.00
2023-04-10T06:29:17.656Z,100.00
2023-04-10T06:30:22.086Z,100.00
2023-04-10T06:31:29.475Z,100.00
2023-04-10T06:32:39.761Z,100.00
2023-04-10T06:33:46.207Z,100.00
2023-04-10T06:34:56.088Z,100.00
2023-04-10T06:36:05.661Z,100.00
2023-04-10T06:37:11.580Z,100.00
2023-04-10T06:38:18.855Z,100.00
2023-04-10T06:39:23.951Z,100.00
2023-04-10T06:40:34.996Z,99.33
2023-04-10T06:41:42.749Z,99.59
2023-04-10T06:42:49.168Z,100.00
2023-04-10T06:43:59.993Z,100.00
2023-04-10T06:45:14.299Z,100.00
2023-04-10T06:46:21.295Z,100.00
2023-04-10T06:47:26.512Z,95.05
2023-04-10T06:48:37.767Z,93.51
2023-04-10T06:49:42.589Z,92.89
2023-04-10T06:50:51.772Z,94.07
2023-04-10T06:51:59.352Z,91.83
2023-04-10T06:53:04.298Z,89.80
2023-04-10T06:54:11.702Z,89.06
2023-04-10T06:55:15.681Z,88.32
2023-04-10T06:56:22.864Z,88.30
2023-04-10T06:57:26.886Z,83.49
2023-04-10T06:58:35.242Z,84.39
2023-04-10T06:59:39.549Z,87.19
2023-04-10T07:00:47.142Z,84.03
2023-04-10T07:01:53.526Z,84.85
2023-04-10T07:02:57.454Z,84.76
2023-04-10T07:04:07.978Z,83.33
2023-04-10T07:05:12.698Z,80.86
2023-04-10T07:06:22.974Z,77.42
2023-04-10T07:07:27.295Z,76.05
2023-04-10T07:08:37.975Z,77.32
2023-04-10T07:09:45.140Z,80.30
2023-04-10T07:10:53.733Z,78.93
2023-04-10T07:11:57.155Z,75.75
2023-04-10T07:13:03.773Z,74.92
2023-04-10T07:14:09.261Z,75.58
2023-04-10T07:15:15.727Z,76.60
2023-04-10T07:16:20.687Z,78.51
2023-04-10T07:17:25.772Z,78.46
2023-04-10T07:18:31.059Z,76.49
2023-04-10T07:19:38.765Z,75.38
2023-04-10T07:20:50.565Z,75.86
2023-04-10T07:21:57.430Z,74.89
2023-04-10T07:23:04.608Z,74.75
2023-04-10T07:24:07.811Z,77.15
2023-04-10T07:25:14.698Z,76.32
2023-04-10T07:26:17.391Z,75.29
2023-04-10T07:27:25.030Z,73.01
2023-04-10T07:28:28.470Z,75.06
2023-04-10T07:29:34.952Z,74.67
2023-04-10T07:30:41.556Z,74.45
2023-04-10T07:31:49.071Z,73.25
2023-04-10T07:32:55.951Z,73.59
2023-04-10T07:33:59.618Z,73.95
2023-04-10T07:35:07.896Z,74.78
2023-04-10T07:36:11.832Z,72.40
2023-04-10T07:37:19.199Z,72.71
2023-04-10T07:38:28.742Z,69.57
2023-04-10T07:39:35.603Z,71.04
2023-04-10T07:40:43.068Z,70.39
2023-04-10T07:41:47.687Z,69.76
2023-04-10T07:42:57.263Z,68.98
2023-04-10T07:44:23.968Z,71.58
2023-04-10T07:45:44.574Z,71.68
2023-04-10T07:46:59.736Z,70.31
2023-04-10T07:48:08.717Z,70.48
2023-04-10T07:49:22.148Z,70.19
2023-04-10T07:50:28.756Z,69.55
2023-04-10T07:51:34.594Z,70.26
2023-04-10T07:52:38.670Z,66.79
2023-04-10T07:53:46.332Z,68.39
2023-04-10T07:54:53.708Z,68.93
2023-04-10T07:55:57.009Z,68.86
2023-04-10T07:57:04.715Z,68.02
2023-04-10T07:58:08.790Z,66.85
2023-04-10T07:59:18.967Z,66.28
2023-04-10T08:00:28.981Z,66.01
2023-04-10T08:01:33.092Z,67.19
2023-04-10T08:02:42.339Z,66.23
2023-04-10T08:03:57.216Z,66.72
2023-04-10T08:05:08.505Z,64.58
2023-04-10T08:06:16.285Z,64.00
2023-04-10T08:07:28.190Z,63.56
2023-04-10T08:08:32.674Z,63.68
2023-04-10T08:09:41.559Z,64.52
2023-04-10T08:10:46.669Z,63.16
2023-04-10T08:11:53.350Z,62.35
2023-04-10T08:13:03.404Z,61.17
2023-04-10T08:14:10.795Z,61.28
2023-04-10T08:15:14.867Z,60.41
2023-04-10T08:16:24.085Z,60.46
2023-04-10T08:17:28.118Z,60.07
2023-04-10T08:18:35.944Z,60.54
2023-04-10T08:19:56.949Z,59.99
2023-04-10T08:21:04.538Z,59.60
2023-04-10T08:22:16.974Z,59.32
2023-04-10T08:23:23.600Z,59.45
2023-04-10T08:24:31.738Z,58.63
2023-04-10T08:25:35.572Z,58.88
2023-04-10T08:26:42.157Z,58.62
2023-04-10T08:27:48.729Z,58.25
2023-04-10T08:28:57.652Z,58.55
2023-04-10T08:30:04.530Z,57.38
2023-04-10T08:31:09.811Z,57.08
2023-04-10T08:32:16.207Z,58.14
2023-04-10T08:33:25.284Z,57.40
2023-04-10T08:34:31.177Z,57.69
2023-04-10T08:35:38.018Z,58.96
2023-04-10T08:36:43.777Z,59.23
2023-04-10T08:38:07.793Z,58.10
2023-04-10T08:39:15.963Z,58.78
2023-04-10T08:40:19.048Z,56.55
2023-04-10T08:41:25.202Z,55.55
2023-04-10T08:42:30.282Z,54.98
2023-04-10T08:43:36.825Z,53.90
2023-04-10T08:44:42.485Z,52.89
2023-04-10T08:45:50.203Z,53.05
2023-04-10T08:46:56.539Z,53.73
2023-04-10T08:48:09.753Z,53.15
2023-04-10T08:49:28.966Z,54.08
2023-04-10T08:50:34.629Z,52.53
2023-04-10T08:51:42.869Z,51.98
2023-04-10T08:52:52.100Z,49.80
2023-04-10T08:54:04.781Z,50.46
2023-04-10T08:55:11.037Z,48.99
2023-04-10T08:56:18.515Z,49.86
2023-04-10T08:57:25.275Z,50.06
2023-04-10T08:58:30.426Z,50.67
2023-04-10T08:59:36.289Z,48.73
2023-04-10T09:00:43.186Z,49.33
2023-04-10T09:01:48.004Z,48.68
2023-04-10T09:02:58.875Z,46.77
2023-04-10T09:04:01.798Z,45.73
2023-04-10T09:05:08.215Z,46.55
2023-04-10T09:06:15.382Z,44.98
2023-04-10T09:07:23.683Z,45.87
2023-04-10T09:08:33.103Z,43.03
2023-04-10T09:09:38.895Z,44.44
2023-04-10T09:10:41.344Z,42.60
2023-04-10T09:12:04.277Z,42.83
2023-04-10T09:13:09.256Z,42.13
2023-04-10T09:14:25.318Z,42.59
2023-04-10T09:15:33.173Z,41.79
2023-04-10T09:16:41.964Z,41.97
2023-04-10T09:18:02.012Z,42.83
2023-04-10T09:19:08.316Z,40.87
2023-04-10T09:20:31.261Z,41.40
2023-04-10T09:21:37.971Z,40.52
2023-04-10T09:22:44.573Z,39.86
2023-04-10T09:24:03.632Z,39.43
2023-04-10T09:25:10.579Z,39.84
2023-04-10T09:26:28.109Z,38.20
2023-04-10T09:27:36.919Z,39.00
2023-04-10T09:29:03.355Z,37.16
2023-04-10T09:30:12.887Z,37.13
2023-04-10T09:31:32.859Z,36.27
2023-04-10T09:32:49.471Z,35.49
2023-04-10T09:34:14.876Z,36.48
2023-04-10T09:35:28.416Z,36.39
2023-04-10T09:36:34.159Z,35.40
2023-04-10T09:37:41.377Z,34.18
2023-04-10T09:38:58.953Z,35.55
2023-04-10T09:40:06.729Z,35.37
2023-04-10T09:41:14.590Z,35.29
2023-04-10T09:42:33.127Z,37.74
2023-04-10T09:43:39.799Z,37.82
2023-04-10T09:44:49.343Z,37.03
2023-04-10T09:46:00.057Z,38.64
2023-04-10T09:47:22.460Z,38.22
2023-04-10T09:48:30.599Z,37.40
2023-04-10T09:49:53.245Z,38.33
2023-04-10T09:50:57.265Z,39.67
2023-04-10T09:52:03.904Z,39.46
2023-04-10T09:53:07.963Z,39.35
2023-04-10T09:54:17.586Z,38.33
2023-04-10T09:55:25.810Z,38.96
2023-04-10T09:56:33.913Z,38.57
2023-04-10T09:57:41.314Z,38.35
2023-04-10T09:58:45.897Z,36.94
2023-04-10T09:59:55.980Z,37.66
2023-04-10T10:01:04.417Z,35.69
2023-04-10T10:02:21.895Z,36.27
2023-04-10T10:03:30.200Z,35.34
2023-04-10T10:04:35.312Z,36.61
2023-04-10T10:05:45.412Z,35.45
2023-04-10T10:06:50.787Z,34.72
2023-04-10T10:07:58.150Z,35.82
2023-04-10T10:09:07.623Z,35.38
2023-04-10T10:10:14.037Z,35.22
2023-04-10T10:11:26.668Z,34.41
2023-04-10T10:12:36.837Z,36.38
2023-04-10T10:13:55.560Z,35.24
2023-04-10T10:15:06.053Z,35.02
2023-04-10T10:16:23.549Z,35.42
2023-04-10T10:17:36.229Z,34.47
2023-04-10T10:18:49.952Z,35.48
2023-04-10T10:20:05.501Z,35.84
2023-04-10T10:21:18.013Z,34.31
2023-04-10T10:22:28.473Z,35.42
2023-04-10T10:23:42.424Z,35.51
2023-04-10T10:24:48.255Z,34.30
2023-04-10T10:26:04.072Z,34.00
2023-04-10T10:27:14.522Z,36.19
2023-04-10T10:28:19.602Z,34.21
2023-04-10T10:29:30.684Z,34.92
2023-04-10T10:30:40.748Z,34.74
2023-04-10T10:31:48.930Z,33.64
2023-04-10T10:32:53.455Z,32.95
2023-04-10T10:34:10.133Z,34.17
2023-04-10T10:35:14.244Z,35.65
2023-04-10T10:36:23.252Z,35.61
2023-04-10T10:37:29.637Z,36.15
2023-04-10T10:38:43.764Z,35.17
2023-04-10T10:40:01.718Z,36.05
2023-04-10T10:41:27.804Z,35.92
2023-04-10T10:42:50.716Z,36.98
2023-04-10T10:44:08.549Z,35.68
2023-04-10T10:45:27.293Z,34.54
2023-04-10T10:46:42.068Z,33.49
2023-04-10T10:47:53.988Z,34.09
2023-04-10T10:48:59.818Z,34.40
2023-04-10T10:50:07.250Z,33.56
2023-04-10T10:51:13.257Z,32.24
2023-04-10T10:52:16.062Z,32.33
2023-04-10T10:53:39.328Z,33.37
2023-04-10T10:54:53.555Z,33.20
2023-04-10T10:56:43.566Z,32.88
2023-04-10T10:57:47.426Z,32.62
2023-04-10T10:58:57.949Z,33.49
2023-04-10T11:00:03.354Z,33.69
2023-04-10T11:01:12.780Z,33.24
2023-04-10T11:02:18.645Z,34.21
2023-04-10T11:03:40.951Z,33.40
2023-04-10T11:04:48.158Z,34.04
2023-04-10T11:05:55.787Z,33.75
2023-04-10T11:07:05.290Z,35.36
2023-04-10T11:08:12.696Z,34.04
2023-04-10T11:09:52.326Z,34.44
2023-04-10T11:11:02.803Z,34.15
2023-04-10T11:12:13.002Z,35.92
2023-04-10T11:13:22.500Z,35.04
2023-04-10T11:14:30.660Z,35.51
2023-04-10T11:15:42.793Z,36.70
2023-04-10T11:16:54.324Z,36.32
2023-04-10T11:17:59.689Z,34.70
2023-04-10T11:19:14.167Z,33.73
2023-04-10T11:20:27.765Z,32.29
2023-04-10T11:21:31.952Z,32.46
2023-04-10T11:23:13.717Z,32.67
2023-04-10T11:24:17.007Z,31.60
2023-04-10T11:25:49.415Z,32.83
2023-04-10T11:26:56.945Z,31.32
2023-04-10T11:28:06.332Z,31.99
2023-04-10T11:29:38.210Z,32.06
2023-04-10T11:30:44.183Z,30.99
2023-04-10T11:31:48.528Z,32.63
2023-04-10T11:32:54.809Z,31.63
2023-04-10T11:34:09.224Z,31.29
2023-04-10T11:35:23.933Z,33.16
2023-04-10T11:36:34.673Z,33.73
2023-04-10T11:37:40.478Z,33.46
2023-04-10T11:38:59.978Z,32.53
2023-04-10T11:40:28.098Z,34.82
2023-04-10T11:41:35.811Z,33.54
2023-04-10T11:42:50.275Z,33.11
2023-04-10T11:44:05.972Z,29.88
2023-04-10T11:45:33.295Z,29.26
2023-04-10T11:46:41.517Z,29.91
2023-04-10T11:47:52.177Z,31.51
2023-04-10T11:49:01.234Z,31.34
2023-04-10T11:50:21.860Z,32.36
2023-04-10T11:51:36.480Z,32.09
2023-04-10T11:52:42.646Z,30.51
2023-04-10T11:53:50.483Z,32.90
2023-04-10T11:54:59.901Z,33.07
2023-04-10T11:56:08.477Z,32.27
2023-04-10T11:57:19.614Z,32.87
2023-04-10T11:58:34.742Z,32.09
2023-04-10T11:59:43.764Z,32.11
2023-04-10T12:00:50.991Z,33.61
2023-04-10T12:02:07.155Z,32.21
2023-04-10T12:03:16.120Z,33.28
2023-04-10T12:04:27.379Z,30.85
2023-04-10T12:05:46.804Z,32.31
2023-04-10T12:07:02.266Z,32.68
2023-04-10T12:08:11.332Z,33.76
2023-04-10T12:09:19.775Z,35.22
2023-04-10T12:10:23.748Z,31.90
2023-04-10T12:11:30.756Z,31.50
2023-04-10T12:12:38.430Z,33.58
2023-04-10T12:13:49.591Z,32.46
2023-04-10T12:14:59.943Z,33.68
2023-04-10T12:16:05.734Z,32.33
2023-04-10T12:17:13.925Z,31.37
2023-04-10T12:18:18.287Z,30.50
2023-04-10T12:19:25.494Z,30.07
2023-04-10T12:20:31.429Z,29.30
2023-04-10T12:21:41.440Z,29.63
2023-04-10T12:22:47.652Z,27.92
2023-04-10T12:23:53.462Z,28.30
2023-04-10T12:24:57.045Z,25.09
2023-04-10T12:26:24.881Z,24.68
2023-04-10T12:27:35.530Z,27.10
2023-04-10T12:28:40.493Z,27.09
2023-04-10T12:29:46.642Z,28.82
2023-04-10T12:30:53.520Z,27.65
2023-04-10T12:32:11.704Z,27.21
2023-04-10T12:33:15.842Z,26.45
2023-04-10T12:34:23.182Z,26.37
2023-04-10T12:35:39.663Z,26.86
2023-04-10T12:36:57.207Z,26.25
2023-04-10T12:38:00.800Z,25.14
2023-04-10T12:39:10.363Z,25.04
2023-04-10T12:40:16.466Z,23.93
2023-04-10T12:41:27.717Z,24.64
2023-04-10T12:42:46.150Z,23.58
2023-04-10T12:44:00.135Z,23.41
2023-04-10T12:45:05.118Z,23.34
2023-04-10T12:46:27.796Z,24.31
2023-04-10T12:47:35.989Z,24.24
2023-04-10T12:48:42.480Z,24.74
2023-04-10T12:50:21.532Z,24.17
2023-04-10T12:51:52.110Z,23.90
2023-04-10T12:53:06.438Z,24.45
2023-04-10T12:54:13.740Z,26.10
2023-04-10T12:55:24.751Z,25.54
2023-04-10T12:56:54.567Z,24.69
2023-04-10T12:58:01.536Z,23.73
2023-04-10T12:59:12.647Z,24.33
2023-04-10T13:00:19.690Z,24.27
2023-04-10T13:01:38.655Z,22.99
2023-04-10T13:03:15.111Z,24.81
2023-04-10T13:04:27.256Z,24.34
2023-04-10T13:05:30.650Z,24.44
2023-04-10T13:06:48.862Z,24.94
2023-04-10T13:08:05.064Z,24.87
2023-04-10T13:09:12.504Z,23.35
2023-04-10T13:10:17.584Z,22.00
2023-04-10T13:11:19.814Z,23.23
2023-04-10T13:12:26.264Z,24.24
2023-04-10T13:13:33.045Z,25.54
2023-04-10T13:14:35.534Z,26.12
2023-04-10T13:15:41.138Z,27.52
2023-04-10T13:16:49.626Z,27.87
2023-04-10T13:17:52.020Z,27.21
2023-04-10T13:18:57.272Z,24.86
2023-04-10T13:20:01.917Z,24.72
2023-04-10T13:21:07.463Z,26.70
2023-04-10T13:22:09.696Z,24.67
2023-04-10T13:23:14.844Z,25.75
2023-04-10T13:24:17.681Z,24.68
2023-04-10T13:25:22.910Z,26.55
2023-04-10T13:26:28.518Z,27.75
2023-04-10T13:27:31.010Z,27.23
2023-04-10T13:28:39.820Z,27.61
2023-04-10T13:29:44.092Z,26.92
2023-04-10T13:30:50.162Z,26.57
2023-04-10T13:32:06.098Z,26.64
2023-04-10T13:33:12.010Z,28.53
2023-04-10T13:34:14.408Z,28.05
2023-04-10T13:35:19.714Z,27.57
2023-04-10T13:36:22.813Z,28.47
2023-04-10T13:37:28.181Z,28.64
2023-04-10T13:38:38.674Z,28.80
2023-04-10T13:39:44.084Z,27.26
2023-04-10T13:40:49.625Z,27.25
2023-04-10T13:41:55.396Z,28.05
2023-04-10T13:43:00.565Z,27.88
2023-04-10T13:44:04.515Z,27.08
2023-04-10T13:45:10.701Z,27.71
2023-04-10T13:46:15.823Z,29.54
2023-04-10T13:47:25.096Z,28.89
2023-04-10T13:48:39.814Z,28.78
2023-04-10T13:49:45.869Z,27.83
2023-04-10T13:50:51.361Z,28.20
2023-04-10T13:51:56.165Z,27.60
2023-04-10T13:53:01.234Z,27.21
2023-04-10T13:54:04.934Z,27.56
2023-04-10T13:55:11.365Z,27.06
2023-04-10T13:56:17.603Z,27.40
2023-04-10T13:57:22.125Z,28.32
2023-04-10T13:58:32.326Z,28.36
2023-04-10T13:59:39.945Z,29.24
2023-04-10T14:00:48.711Z,29.98
2023-04-10T14:01:52.845Z,30.03
2023-04-10T14:03:01.902Z,30.30
2023-04-10T14:04:07.390Z,30.24
2023-04-10T14:05:14.247Z,28.51
2023-04-10T14:06:16.514Z,28.56
2023-04-10T14:07:22.020Z,28.79
2023-04-10T14:08:28.106Z,28.32
2023-04-10T14:09:30.893Z,28.11
2023-04-10T14:10:36.020Z,26.91
2023-04-10T14:11:38.793Z,26.74
2023-04-10T14:12:43.764Z,26.77
2023-04-10T14:13:46.157Z,25.50
2023-04-10T14:14:51.099Z,26.28
2023-04-10T14:15:53.949Z,27.32
2023-04-10T14:16:59.155Z,27.30
2023-04-10T14:18:04.311Z,27.93
2023-04-10T14:19:09.402Z,28.61
2023-04-10T14:20:14.673Z,27.91
2023-04-10T14:21:20.728Z,27.25
2023-04-10T14:22:25.927Z,27.94
2023-04-10T14:23:28.828Z,27.50
2023-04-10T14:24:34.035Z,27.56
2023-04-10T14:25:40.343Z,28.07
2023-04-10T14:26:42.674Z,28.53
2023-04-10T14:27:48.226Z,29.75
2023-04-10T14:28:50.381Z,30.03
2023-04-10T14:29:56.024Z,30.17
2023-04-10T14:30:58.359Z,29.17
2023-04-10T14:32:03.895Z,30.27
2023-04-10T14:33:08.836Z,30.45
2023-04-10T14:34:14.392Z,29.67
2023-04-10T14:35:16.780Z,28.97
2023-04-10T14:36:21.912Z,29.49
2023-04-10T14:37:24.068Z,29.40
2023-04-10T14:38:29.075Z,29.35
2023-04-10T14:39:31.642Z,29.46
2023-04-10T14:40:38.047Z,30.08
2023-04-10T14:41:40.979Z,30.68
2023-04-10T14:42:47.331Z,30.17
2023-04-10T14:43:52.512Z,30.89
2023-04-10T14:44:59.290Z,31.60
2023-04-10T14:46:03.609Z,31.73
2023-04-10T14:47:09.377Z,31.02
2023-04-10T14:48:14.646Z,30.64
2023-04-10T14:49:21.698Z,30.70
2023-04-10T14:50:23.944Z,29.56
2023-04-10T14:51:29.065Z,32.48
2023-04-10T14:52:33.919Z,32.18
2023-04-10T14:53:36.053Z,31.74
2023-04-10T14:54:42.875Z,32.60
2023-04-10T14:55:47.731Z,33.17
2023-04-10T14:56:52.759Z,31.99
2023-04-10T14:57:56.554Z,32.43
2023-04-10T14:59:02.735Z,31.90
2023-04-10T15:00:08.664Z,32.87
2023-04-10T15:01:14.197Z,32.37
2023-04-10T15:02:19.038Z,31.65
2023-04-10T15:03:27.619Z,32.13
2023-04-10T15:04:32.693Z,32.13